Terminal Aerodrome Forecast
Issued by NWS Jackson, MS

Home | Current Version | Previous Version | Text Only | Print | Product List | Glossary On
Versions: 1 2 3 4 5 6 7 8 9 10 11 12 13 14
000
FTUS44 KMEG 192326
TAFTUP
TAF
KTUP 192326Z 2000/2024 04005KT P6SM VCSH SCT035 OVC090
      TEMPO 2000/2003 -RA OVC035
     FM200800 04005KT P6SM SCT015 BKN150
     FM201500 04006KT P6SM FEW040=

USA.gov is the U.S. government's official web portal to all federal, state and local government web resources and services.